createdAt,value
2022-09-10T00:01:16.689Z,0.80
2022-09-10T00:03:42.935Z,0.60
2022-09-10T00:06:09.780Z,0.93
2022-09-10T00:08:36.264Z,0.93
2022-09-10T00:11:08.803Z,0.97
2022-09-10T00:13:36.555Z,1.13
2022-09-10T00:16:03.969Z,1.00
2022-09-10T00:18:30.682Z,0.90
2022-09-10T00:20:57.799Z,0.80
2022-09-10T00:23:26.430Z,0.90
2022-09-10T00:25:54.214Z,0.90
2022-09-10T00:28:22.193Z,1.03
2022-09-10T00:30:53.799Z,0.77
2022-09-10T00:33:20.431Z,1.00
2022-09-10T00:35:46.755Z,1.20
2022-09-10T00:38:13.988Z,1.30
2022-09-10T00:40:40.321Z,1.10
2022-09-10T00:43:12.158Z,1.00
2022-09-10T00:45:38.374Z,1.00
2022-09-10T00:48:10.859Z,0.80
2022-09-10T00:50:39.887Z,1.40
2022-09-10T00:53:08.951Z,0.87
2022-09-10T00:55:35.458Z,0.70
2022-09-10T00:58:04.034Z,0.80
2022-09-10T01:00:31.192Z,0.63
2022-09-10T01:02:58.548Z,0.80
2022-09-10T01:05:25.786Z,0.77
2022-09-10T01:07:52.404Z,1.00
2022-09-10T01:10:26.125Z,0.80
2022-09-10T01:13:16.992Z,0.60
2022-09-10T01:16:10.354Z,0.93
2022-09-10T01:19:01.176Z,0.77
2022-09-10T01:21:37.711Z,0.80
2022-09-10T01:27:34.449Z,0.87
2022-09-10T01:30:08.445Z,0.60
2022-09-10T01:32:51.928Z,0.80
2022-09-10T01:35:22.939Z,0.80
2022-09-10T01:37:53.769Z,0.90
2022-09-10T01:40:28.139Z,1.03
2022-09-10T01:42:53.938Z,0.97
2022-09-10T01:45:19.885Z,0.70
2022-09-10T01:48:02.464Z,1.17
2022-09-10T01:50:38.068Z,0.93
2022-09-10T01:53:32.696Z,0.67
2022-09-10T01:56:09.016Z,0.77
2022-09-10T01:58:37.692Z,0.70
2022-09-10T02:01:15.900Z,0.80
2022-09-10T02:03:44.017Z,0.90
2022-09-10T02:06:12.333Z,0.87
2022-09-10T02:08:40.186Z,1.00
2022-09-10T02:11:10.018Z,1.33
2022-09-10T02:13:36.025Z,1.30
2022-09-10T02:16:03.293Z,0.80
2022-09-10T02:18:32.184Z,0.80
2022-09-10T02:20:58.808Z,1.13
2022-09-10T02:23:50.303Z,1.00
2022-09-10T02:26:16.310Z,1.10
2022-09-10T02:28:48.871Z,1.10
2022-09-10T02:31:15.265Z,0.90
2022-09-10T02:33:42.546Z,1.30
2022-09-10T02:36:08.421Z,1.40
2022-09-10T02:38:34.280Z,1.30
2022-09-10T02:41:00.146Z,1.13
2022-09-10T02:43:26.712Z,1.53
2022-09-10T02:45:56.763Z,1.50
2022-09-10T02:48:26.371Z,1.17
2022-09-10T02:50:52.893Z,1.40
2022-09-10T02:53:19.026Z,1.20
2022-09-10T02:55:45.591Z,1.40
2022-09-10T02:58:12.781Z,1.43
2022-09-10T03:00:39.393Z,1.43
2022-09-10T03:03:05.617Z,1.20
2022-09-10T03:05:32.159Z,1.40
2022-09-10T03:07:59.672Z,1.27
2022-09-10T03:10:25.494Z,1.40
2022-09-10T03:12:51.373Z,2.10
2022-09-10T03:15:19.805Z,1.60
2022-09-10T03:17:46.636Z,1.77
2022-09-10T03:20:12.873Z,1.50
2022-09-10T03:22:38.805Z,1.77
2022-09-10T03:25:05.602Z,2.13
2022-09-10T03:27:31.477Z,2.10
2022-09-10T03:29:57.275Z,2.00
2022-09-10T03:32:23.109Z,2.33
2022-09-10T03:34:48.879Z,2.30
2022-09-10T03:37:15.708Z,1.90
2022-09-10T03:39:42.167Z,2.37
2022-09-10T03:42:08.039Z,2.20
2022-09-10T03:44:34.278Z,1.57
2022-09-10T03:47:00.963Z,1.80
2022-09-10T03:49:27.059Z,3.30
2022-09-10T03:51:53.225Z,1.90
2022-09-10T03:54:19.629Z,2.10
2022-09-10T03:56:45.728Z,2.27
2022-09-10T03:59:15.199Z,2.07
2022-09-10T04:01:41.410Z,2.00
2022-09-10T04:04:10.056Z,2.10
2022-09-10T04:06:36.884Z,2.70
2022-09-10T04:09:02.900Z,2.10
2022-09-10T04:11:29.021Z,2.60
2022-09-10T04:13:56.073Z,3.23
2022-09-10T04:16:22.671Z,3.23
2022-09-10T04:18:51.298Z,2.53
2022-09-10T04:21:17.118Z,2.40
2022-09-10T04:23:43.010Z,2.40
2022-09-10T04:26:13.942Z,2.03
2022-09-10T04:28:40.583Z,2.20
2022-09-10T04:31:06.677Z,2.80
2022-09-10T04:33:35.092Z,2.80
2022-09-10T04:36:01.250Z,3.00
2022-09-10T04:38:29.736Z,2.83
2022-09-10T04:41:02.442Z,3.60
2022-09-10T04:43:28.456Z,3.10
2022-09-10T04:45:54.945Z,2.80
2022-09-10T04:48:22.043Z,2.60
2022-09-10T04:51:14.400Z,2.40
2022-09-10T04:53:34.620Z,2.20
2022-09-10T04:56:00.440Z,2.33
2022-09-10T04:58:26.252Z,1.80
2022-09-10T05:00:52.182Z,2.10
2022-09-10T05:03:18.008Z,2.07
2022-09-10T05:05:45.289Z,2.40
2022-09-10T05:08:12.487Z,2.67
2022-09-10T05:10:38.275Z,3.00
2022-09-10T05:13:04.333Z,2.90
2022-09-10T05:15:31.015Z,3.93
2022-09-10T05:17:56.863Z,3.10
2022-09-10T05:20:22.768Z,3.53
2022-09-10T05:22:48.566Z,4.70
2022-09-10T05:25:15.117Z,5.27
2022-09-10T05:27:41.173Z,4.80
2022-09-10T05:30:07.682Z,6.47
2022-09-10T05:32:34.151Z,4.87
2022-09-10T05:35:01.605Z,4.43
2022-09-10T05:37:27.451Z,3.90
2022-09-10T05:39:53.264Z,3.70
2022-09-10T05:42:21.217Z,4.47
2022-09-10T05:44:47.040Z,4.93
2022-09-10T05:47:12.820Z,5.00
2022-09-10T05:49:38.607Z,4.30
2022-09-10T05:52:04.504Z,4.97
2022-09-10T05:54:30.298Z,3.93
2022-09-10T05:56:57.950Z,4.33
2022-09-10T05:59:23.909Z,3.40
2022-09-10T06:01:51.433Z,2.97
2022-09-10T06:04:20.608Z,5.87
2022-09-10T06:06:47.176Z,3.20
2022-09-10T06:09:13.772Z,3.70
2022-09-10T06:11:39.632Z,3.23
2022-09-10T06:14:06.283Z,3.40
2022-09-10T06:16:33.036Z,3.53
2022-09-10T06:18:58.859Z,2.87
2022-09-10T06:21:28.098Z,3.17
2022-09-10T06:23:54.655Z,2.90
2022-09-10T06:26:20.881Z,3.50
2022-09-10T06:28:47.915Z,3.00
2022-09-10T06:31:16.532Z,3.00
2022-09-10T06:33:43.388Z,2.57
2022-09-10T06:36:10.401Z,3.00
2022-09-10T06:38:36.193Z,2.97
2022-09-10T06:41:05.192Z,2.73
2022-09-10T06:43:32.902Z,3.20
2022-09-10T06:45:58.916Z,4.10
2022-09-10T06:48:47.574Z,3.43
2022-09-10T06:51:14.750Z,3.50
2022-09-10T06:53:42.858Z,3.37
2022-09-10T06:56:12.707Z,4.00
2022-09-10T06:58:39.068Z,3.93
2022-09-10T07:01:13.168Z,4.27
2022-09-10T07:03:38.973Z,3.97
2022-09-10T07:06:07.131Z,5.27
2022-09-10T07:08:33.307Z,4.87
2022-09-10T07:11:01.121Z,4.33
2022-09-10T07:13:26.929Z,4.20
2022-09-10T07:15:52.904Z,3.30
2022-09-10T07:18:18.783Z,4.10
2022-09-10T07:20:45.694Z,5.80
2022-09-10T07:23:13.200Z,4.83
2022-09-10T07:25:39.994Z,4.57
2022-09-10T07:28:06.470Z,4.40
2022-09-10T07:30:33.178Z,5.07
2022-09-10T07:32:58.991Z,4.50
2022-09-10T07:35:24.774Z,4.20
2022-09-10T07:37:50.638Z,3.90
2022-09-10T07:40:16.586Z,2.80
2022-09-10T07:42:45.242Z,4.70
2022-09-10T07:45:14.994Z,3.43
2022-09-10T07:47:42.463Z,4.50
2022-09-10T07:50:08.638Z,4.87
2022-09-10T07:52:34.443Z,5.00
2022-09-10T07:55:00.251Z,4.50
2022-09-10T07:57:26.246Z,4.93
2022-09-10T07:59:53.074Z,4.80
2022-09-10T08:02:19.729Z,4.60
2022-09-10T08:04:46.162Z,4.20
2022-09-10T08:07:12.009Z,4.17
2022-09-10T08:09:38.185Z,4.67
2022-09-10T08:12:06.908Z,4.77
2022-09-10T08:14:33.026Z,5.17
2022-09-10T08:17:00.416Z,4.90
2022-09-10T08:19:26.281Z,4.40
2022-09-10T08:21:52.418Z,4.13
2022-09-10T08:24:18.271Z,4.60
2022-09-10T08:26:44.063Z,3.87
2022-09-10T08:29:09.888Z,4.50
2022-09-10T08:31:36.279Z,3.73
2022-09-10T08:34:02.821Z,4.23
2022-09-10T08:36:28.633Z,4.00
2022-09-10T08:38:59.528Z,5.17
2022-09-10T08:41:30.545Z,10.33
2022-09-10T08:44:06.617Z,5.17
2022-09-10T08:46:44.296Z,5.10
2022-09-10T08:49:37.650Z,4.90
2022-09-10T08:52:19.911Z,4.47
2022-09-10T08:55:17.832Z,4.27
2022-09-10T08:57:48.388Z,4.00
2022-09-10T09:00:20.483Z,3.97
2022-09-10T09:02:49.986Z,3.73
2022-09-10T09:05:22.014Z,3.77
2022-09-10T09:07:48.790Z,3.90
2022-09-10T09:10:40.708Z,2.90
2022-09-10T09:13:09.535Z,2.80
2022-09-10T09:16:05.448Z,3.10
2022-09-10T09:18:33.968Z,3.23
2022-09-10T09:21:06.223Z,3.77
2022-09-10T09:23:56.883Z,3.00
2022-09-10T09:26:34.657Z,2.70
2022-09-10T09:29:20.597Z,2.70
2022-09-10T09:31:51.709Z,2.37
2022-09-10T09:34:38.066Z,2.23
2022-09-10T09:37:09.857Z,2.50
2022-09-10T09:39:41.377Z,2.57
2022-09-10T09:42:41.225Z,1.87
2022-09-10T09:45:22.768Z,2.30
2022-09-10T09:47:53.729Z,1.60
2022-09-10T09:50:19.972Z,1.90
2022-09-10T09:52:46.270Z,2.00
2022-09-10T09:55:32.853Z,2.03
2022-09-10T09:58:20.534Z,1.87
2022-09-10T10:01:05.047Z,1.90
2022-09-10T10:03:32.990Z,2.00
2022-09-10T10:06:08.861Z,1.47
2022-09-10T10:08:40.714Z,2.30
2022-09-10T10:11:07.362Z,1.87
2022-09-10T10:13:41.726Z,1.50
2022-09-10T10:16:16.586Z,2.10
2022-09-10T10:18:43.837Z,1.40
2022-09-10T10:21:19.384Z,1.57
2022-09-10T10:23:45.465Z,1.63
2022-09-10T10:26:20.322Z,1.67
2022-09-10T10:28:48.070Z,1.60
2022-09-10T10:31:14.793Z,1.93
2022-09-10T10:34:07.667Z,1.60
2022-09-10T10:37:12.647Z,1.47
2022-09-10T10:40:03.992Z,1.60
2022-09-10T10:42:53.414Z,2.17
2022-09-10T10:45:36.495Z,1.57
2022-09-10T10:48:49.962Z,1.20
2022-09-10T10:51:25.276Z,1.63
2022-09-10T10:54:18.928Z,1.40
2022-09-10T10:56:55.512Z,1.60
2022-09-10T10:59:43.945Z,1.10
2022-09-10T11:02:15.470Z,1.40
2022-09-10T11:04:53.236Z,1.37
2022-09-10T11:07:22.466Z,1.20
2022-09-10T11:09:57.798Z,1.40
2022-09-10T11:12:31.305Z,1.37
2022-09-10T11:15:14.139Z,1.33
2022-09-10T11:17:46.527Z,1.20
2022-09-10T11:20:28.450Z,1.00
2022-09-10T11:23:09.594Z,1.23
2022-09-10T11:25:48.765Z,1.30
2022-09-10T11:28:41.416Z,1.07
2022-09-10T11:31:30.302Z,1.40
2022-09-10T11:34:03.944Z,1.03
2022-09-10T11:36:52.865Z,1.00
2022-09-10T11:39:22.847Z,1.10
2022-09-10T11:41:51.291Z,1.10
2022-09-10T11:44:27.872Z,0.80
2022-09-10T11:47:19.702Z,3.17
2022-09-10T11:49:52.786Z,0.87
2022-09-10T11:52:20.466Z,0.80
2022-09-10T11:54:46.900Z,0.90
2022-09-10T11:57:29.380Z,0.83
2022-09-10T12:00:07.998Z,1.10
2022-09-10T12:02:42.853Z,0.80
2022-09-10T12:05:18.551Z,0.87
2022-09-10T12:08:22.855Z,0.90
2022-09-10T12:11:24.258Z,0.70
2022-09-10T12:13:51.662Z,0.60
2022-09-10T12:16:34.125Z,0.80
2022-09-10T12:19:00.842Z,0.70
2022-09-10T12:21:38.987Z,0.80
2022-09-10T12:24:26.754Z,0.80
2022-09-10T12:26:53.509Z,0.70
2022-09-10T12:29:34.236Z,0.70
2022-09-10T12:32:18.457Z,0.70
2022-09-10T12:34:47.700Z,0.80
2022-09-10T12:37:22.054Z,1.03
2022-09-10T12:39:48.860Z,0.80
2022-09-10T12:42:29.111Z,0.60
2022-09-10T12:44:55.493Z,0.90
2022-09-10T12:47:40.676Z,1.03
2022-09-10T12:50:18.529Z,1.60
2022-09-10T12:52:57.949Z,1.00
2022-09-10T12:55:58.920Z,1.03
2022-09-10T12:58:27.354Z,0.90
2022-09-10T13:00:53.154Z,0.70
2022-09-10T13:03:19.778Z,0.80
2022-09-10T13:05:49.623Z,0.70
2022-09-10T13:08:15.407Z,0.50
2022-09-10T13:10:49.045Z,0.80
2022-09-10T13:13:37.119Z,0.57
2022-09-10T13:16:04.244Z,0.50
2022-09-10T13:18:33.192Z,0.43
2022-09-10T13:20:59.334Z,0.60
2022-09-10T13:23:47.195Z,0.70
2022-09-10T13:26:28.214Z,0.50
2022-09-10T13:28:57.529Z,0.60
2022-09-10T13:31:27.402Z,0.50
2022-09-10T13:34:14.726Z,0.57
2022-09-10T13:37:18.028Z,0.70
2022-09-10T13:40:09.821Z,0.63
2022-09-10T13:43:04.906Z,0.60
2022-09-10T13:45:55.521Z,0.50
2022-09-10T13:48:27.473Z,0.60
2022-09-10T13:50:58.656Z,0.60
2022-09-10T13:53:25.645Z,0.50
2022-09-10T13:56:14.306Z,0.50
2022-09-10T13:58:46.456Z,0.63
2022-09-10T14:01:12.432Z,0.60
2022-09-10T14:03:39.812Z,0.50
2022-09-10T14:06:18.516Z,0.50
2022-09-10T14:08:55.258Z,0.50
2022-09-10T14:11:24.192Z,0.43
2022-09-10T14:14:05.724Z,0.70
2022-09-10T14:16:48.844Z,0.50
2022-09-10T14:19:23.528Z,0.50
2022-09-10T14:21:51.036Z,0.60
2022-09-10T14:24:26.233Z,0.50
2022-09-10T14:27:15.338Z,0.60
2022-09-10T14:29:41.663Z,0.60
2022-09-10T14:32:33.212Z,0.50
2022-09-10T14:35:34.429Z,1.07
2022-09-10T14:38:03.645Z,0.63
2022-09-10T14:40:35.563Z,0.80
2022-09-10T14:43:43.574Z,0.60
2022-09-10T14:46:31.761Z,0.60
2022-09-10T14:48:57.556Z,0.60
2022-09-10T14:51:24.822Z,0.60
2022-09-10T14:53:52.587Z,0.50
2022-09-10T14:56:22.848Z,0.60
2022-09-10T14:59:03.850Z,0.70
2022-09-10T15:01:29.958Z,0.70
2022-09-10T15:03:56.366Z,0.70
2022-09-10T15:06:26.425Z,0.70
2022-09-10T15:08:55.199Z,0.70
2022-09-10T15:11:23.662Z,0.67
2022-09-10T15:13:50.404Z,1.30
2022-09-10T15:16:17.056Z,0.77
2022-09-10T15:18:42.922Z,1.10
2022-09-10T15:21:13.304Z,0.80
2022-09-10T15:23:39.208Z,1.13
2022-09-10T15:26:05.978Z,1.00
2022-09-10T15:28:32.375Z,0.80
2022-09-10T15:30:58.410Z,0.87
2022-09-10T15:33:24.257Z,0.73
2022-09-10T15:35:50.062Z,0.90
2022-09-10T15:38:16.950Z,0.90
2022-09-10T15:40:42.959Z,0.77
2022-09-10T15:43:09.321Z,3.30
2022-09-10T15:45:36.367Z,0.67
2022-09-10T15:48:06.348Z,0.90
2022-09-10T15:50:32.788Z,0.80
2022-09-10T15:52:58.709Z,1.03
2022-09-10T15:55:24.863Z,0.93
2022-09-10T15:57:51.146Z,0.90
2022-09-10T16:00:18.301Z,1.03
2022-09-10T16:02:47.290Z,0.80
2022-09-10T16:05:15.344Z,1.00
2022-09-10T16:07:44.742Z,1.00
2022-09-10T16:10:11.972Z,1.07
2022-09-10T16:12:37.962Z,0.97
2022-09-10T16:15:04.665Z,0.90
2022-09-10T16:17:31.513Z,0.90
2022-09-10T16:19:59.328Z,1.30
2022-09-10T16:22:29.372Z,0.93
2022-09-10T16:24:55.239Z,0.90
2022-09-10T16:27:21.099Z,1.10
2022-09-10T16:29:47.892Z,1.10
2022-09-10T16:32:13.744Z,1.37
2022-09-10T16:34:39.646Z,1.13
2022-09-10T16:37:05.931Z,1.50
2022-09-10T16:39:31.846Z,1.40
2022-09-10T16:41:57.667Z,1.47
2022-09-10T16:44:23.501Z,1.50
2022-09-10T16:46:49.403Z,2.10
2022-09-10T16:49:18.948Z,1.80
2022-09-10T16:51:46.554Z,3.30
2022-09-10T16:54:13.594Z,3.47
2022-09-10T16:56:41.658Z,2.87
2022-09-10T16:59:10.827Z,2.80
2022-09-10T17:01:37.030Z,1.47
2022-09-10T17:04:03.751Z,3.13
2022-09-10T17:06:30.447Z,1.30
2022-09-10T17:08:58.435Z,2.20
2022-09-10T17:11:26.436Z,24.20
2022-09-10T17:13:53.557Z,1.17
2022-09-10T17:16:25.799Z,1.10
2022-09-10T17:19:17.831Z,0.93
2022-09-10T17:21:46.636Z,1.10
2022-09-10T17:24:12.676Z,1.30
2022-09-10T17:26:39.569Z,1.30
2022-09-10T17:29:07.838Z,1.23
2022-09-10T17:31:34.863Z,1.30
2022-09-10T17:34:01.119Z,1.00
2022-09-10T17:36:27.859Z,1.30
2022-09-10T17:38:54.338Z,1.17
2022-09-10T17:41:21.717Z,1.00
2022-09-10T17:43:47.736Z,1.13
2022-09-10T17:46:17.452Z,1.27
2022-09-10T17:48:47.532Z,1.00
2022-09-10T17:51:15.743Z,1.27
2022-09-10T17:53:43.166Z,1.20
2022-09-10T17:56:11.528Z,0.80
2022-09-10T17:58:37.486Z,1.40
2022-09-10T18:01:07.252Z,0.90
2022-09-10T18:03:33.979Z,1.23
2022-09-10T18:06:08.095Z,1.20
2022-09-10T18:08:34.600Z,1.17
2022-09-10T18:11:06.097Z,1.27
2022-09-10T18:13:33.559Z,1.20
2022-09-10T18:16:07.239Z,1.50
2022-09-10T18:18:34.423Z,0.97
2022-09-10T18:21:18.888Z,1.53
2022-09-10T18:23:53.464Z,1.23
2022-09-10T18:26:21.251Z,1.80
2022-09-10T18:29:05.781Z,2.13
2022-09-10T18:31:34.379Z,2.13
2022-09-10T18:34:00.833Z,2.63
2022-09-10T18:36:30.792Z,3.23
2022-09-10T18:38:57.253Z,3.70
2022-09-10T18:41:28.309Z,3.90
2022-09-10T18:43:57.450Z,5.03
2022-09-10T18:46:25.275Z,3.50
2022-09-10T18:48:52.070Z,3.10
2022-09-10T18:51:20.378Z,2.30
2022-09-10T18:53:46.379Z,3.07
2022-09-10T18:56:17.456Z,2.80
2022-09-10T18:58:51.841Z,2.87
2022-09-10T19:01:18.850Z,2.70
2022-09-10T19:03:46.357Z,2.97
2022-09-10T19:06:15.310Z,3.00
2022-09-10T19:09:12.350Z,2.60
2022-09-10T19:11:40.624Z,3.00
2022-09-10T19:14:12.919Z,3.10
2022-09-10T19:16:40.494Z,2.43
2022-09-10T19:19:06.599Z,2.60
2022-09-10T19:21:34.667Z,1.80
2022-09-10T19:24:00.924Z,3.93
2022-09-10T19:26:29.249Z,2.60
2022-09-10T19:28:56.706Z,2.43
2022-09-10T19:31:23.685Z,2.63
2022-09-10T19:33:57.500Z,2.20
2022-09-10T19:36:26.656Z,1.87
2022-09-10T19:38:53.917Z,1.80
2022-09-10T19:41:19.862Z,2.20
2022-09-10T19:43:47.124Z,2.50
2022-09-10T19:46:14.584Z,2.50
2022-09-10T19:48:41.891Z,2.10
2022-09-10T19:51:09.899Z,2.60
2022-09-10T19:53:36.521Z,2.63
2022-09-10T19:56:08.763Z,2.87
2022-09-10T19:58:35.891Z,2.93
2022-09-10T20:01:12.889Z,2.80
2022-09-10T20:03:40.370Z,2.70
2022-09-10T20:06:07.723Z,3.03
2022-09-10T20:08:34.504Z,2.83
2022-09-10T20:11:02.265Z,2.73
2022-09-10T20:13:28.067Z,2.23
2022-09-10T20:15:54.116Z,3.20
2022-09-10T20:18:26.098Z,2.50
2022-09-10T20:20:51.908Z,2.77
2022-09-10T20:23:17.743Z,3.50
2022-09-10T20:25:43.579Z,2.77
2022-09-10T20:28:09.377Z,3.90
2022-09-10T20:30:36.356Z,3.67
2022-09-10T20:33:02.174Z,3.67
2022-09-10T20:35:29.518Z,3.30
2022-09-10T20:37:55.921Z,3.60
2022-09-10T20:40:21.798Z,3.77
2022-09-10T20:42:47.620Z,3.20
2022-09-10T20:45:13.551Z,3.93
2022-09-10T20:47:42.309Z,2.73
2022-09-10T20:50:10.807Z,3.37
2022-09-10T20:52:37.064Z,4.50
2022-09-10T20:55:03.889Z,4.00
2022-09-10T20:57:29.678Z,4.60
2022-09-10T20:59:55.632Z,4.20
2022-09-10T21:02:21.617Z,4.50
2022-09-10T21:04:47.479Z,4.47
2022-09-10T21:07:13.313Z,4.40
2022-09-10T21:09:39.244Z,4.50
2022-09-10T21:12:05.334Z,4.90
2022-09-10T21:14:32.307Z,3.70
2022-09-10T21:16:58.524Z,4.30
2022-09-10T21:19:25.572Z,5.13
2022-09-10T21:21:51.473Z,4.20
2022-09-10T21:24:21.698Z,3.70
2022-09-10T21:26:48.454Z,9.30
2022-09-10T21:29:19.272Z,8.00
2022-09-10T21:31:46.035Z,5.40
2022-09-10T21:34:12.682Z,5.70
2022-09-10T21:36:39.444Z,4.83
2022-09-10T21:39:07.278Z,5.60
2022-09-10T21:41:39.242Z,5.50
2022-09-10T21:44:13.406Z,5.17
2022-09-10T21:46:43.018Z,4.67
2022-09-10T21:49:08.918Z,4.70
2022-09-10T21:51:34.971Z,5.20
2022-09-10T21:54:01.243Z,15.70
2022-09-10T21:56:28.930Z,5.87
2022-09-10T21:58:58.618Z,5.77
2022-09-10T22:01:27.221Z,5.67
2022-09-10T22:03:56.267Z,5.43
2022-09-10T22:06:24.203Z,5.53
2022-09-10T22:08:52.541Z,6.37
2022-09-10T22:11:23.953Z,6.90
2022-09-10T22:13:51.652Z,6.60
2022-09-10T22:16:17.773Z,6.33
2022-09-10T22:18:44.604Z,6.23
2022-09-10T22:21:10.433Z,6.33
2022-09-10T22:23:37.660Z,5.90
2022-09-10T22:26:07.838Z,5.73
2022-09-10T22:28:34.938Z,6.53
2022-09-10T22:31:16.090Z,5.33
2022-09-10T22:33:43.493Z,6.27
2022-09-10T22:36:09.519Z,5.70
2022-09-10T22:38:35.435Z,7.20
2022-09-10T22:41:02.636Z,6.67
2022-09-10T22:43:28.829Z,6.60
2022-09-10T22:45:54.870Z,5.70
2022-09-10T22:48:20.688Z,5.80
2022-09-10T22:50:46.540Z,6.40
2022-09-10T22:53:13.760Z,5.17
2022-09-10T22:55:40.131Z,6.00
2022-09-10T22:58:06.173Z,5.90
2022-09-10T23:00:35.734Z,6.23
2022-09-10T23:03:04.011Z,6.40
2022-09-10T23:05:30.641Z,7.03
2022-09-10T23:07:56.918Z,6.77
2022-09-10T23:10:23.301Z,6.77
2022-09-10T23:12:49.359Z,7.50
2022-09-10T23:15:15.573Z,7.80
2022-09-10T23:17:41.366Z,7.13
2022-09-10T23:20:07.462Z,8.10
2022-09-10T23:22:33.432Z,7.87
2022-09-10T23:24:59.905Z,7.07
2022-09-10T23:27:25.688Z,7.27
2022-09-10T23:29:51.496Z,6.30
2022-09-10T23:32:17.324Z,6.40
2022-09-10T23:34:43.163Z,7.87
2022-09-10T23:37:09.408Z,6.03
2022-09-10T23:39:35.479Z,6.80
2022-09-10T23:42:01.402Z,7.37
2022-09-10T23:44:27.947Z,6.60
2022-09-10T23:46:54.856Z,7.40
2022-09-10T23:49:23.233Z,7.30
2022-09-10T23:51:49.965Z,6.30
2022-09-10T23:54:16.253Z,6.60
2022-09-10T23:56:42.998Z,6.20
2022-09-10T23:59:09.336Z,6.20
